Time;durP1;ratioP1;P1;durP2;ratioP2;P2;SDS_P1;SDS_P2;PMS_P1;PMS_P2;Temp;Humidity;BMP_temperature;BMP_pressure;BME280_temperature;BME280_humidity;BME280_pressure;Samples;Min_cycle;Max_cycle;Signal;HPM_P1;HPM_P2
2022/06/22 00:02:37;;;;;;;2.50;1.60;;;19.00;75.60;;;;;;10319712;28;20240;-66
2022/06/22 00:07:42;;;;;;;2.27;1.33;;;19.00;75.80;;;;;;10305937;28;20217;-67
2022/06/22 00:12:51;;;;;;;3.83;1.83;;;19.00;76.00;;;;;;10327093;28;20244;-67
2022/06/22 00:17:52;;;;;;;3.70;1.90;;;18.90;76.40;;;;;;10311508;28;20218;-67
2022/06/22 00:23:21;;;;;;;2.97;1.70;;;18.90;76.80;;;;;;10311047;28;20229;-67
2022/06/22 00:28:35;;;;;;;6.77;2.57;;;18.80;77.20;;;;;;10315069;28;20255;-66
2022/06/22 00:33:36;;;;;;;6.33;2.83;;;18.60;77.50;;;;;;10287719;28;20284;-66
2022/06/22 00:38:36;;;;;;;4.33;2.63;;;18.60;78.00;;;;;;10315744;28;20233;-66
2022/06/22 00:43:37;;;;;;;8.83;2.10;;;18.60;78.40;;;;;;10311145;28;20248;-65
2022/06/22 00:48:38;;;;;;;5.37;2.30;;;18.60;78.50;;;;;;10307504;28;20221;-67
2022/06/22 00:54:10;;;;;;;5.73;2.70;;;18.50;78.50;;;;;;10310572;28;20236;-67
2022/06/22 00:59:17;;;;;;;3.20;1.50;;;18.40;78.80;;;;;;10313867;28;20217;-67
2022/06/22 01:04:57;;;;;;;4.20;1.50;;;18.30;79.20;;;;;;10320145;28;20240;-66
2022/06/22 01:10:18;;;;;;;2.00;1.50;;;18.30;79.40;;;;;;10308480;28;20221;-67
2022/06/22 01:15:32;;;;;;;2.43;1.57;;;18.20;79.60;;;;;;10313049;28;20221;-66
2022/06/22 01:20:51;;;;;;;3.83;1.50;;;18.30;79.70;;;;;;10316788;28;20241;-68
2022/06/22 01:25:54;;;;;;;3.27;1.67;;;18.20;79.80;;;;;;10311808;28;20310;-68
2022/06/22 01:31:04;;;;;;;2.27;1.30;;;18.10;79.80;;;;;;10312019;28;20965;-67
2022/06/22 01:36:26;;;;;;;4.10;1.30;;;18.00;80.20;;;;;;10310456;28;20225;-66
2022/06/22 01:41:32;;;;;;;1.83;1.37;;;18.10;80.20;;;;;;10307797;28;20240;-67
2022/06/22 01:46:36;;;;;;;3.20;1.50;;;18.00;80.10;;;;;;10308185;28;20217;-66
2022/06/22 01:51:50;;;;;;;1.90;1.50;;;18.00;80.60;;;;;;10310002;28;20241;-65
2022/06/22 01:57:11;;;;;;;2.67;1.60;;;18.00;80.90;;;;;;10317580;28;20344;-67
2022/06/22 02:02:18;;;;;;;2.40;1.40;;;17.90;80.90;;;;;;10327455;28;20303;-67
2022/06/22 02:07:45;;;;;;;2.80;1.70;;;17.80;82.20;;;;;;10330004;28;20217;-68
2022/06/22 02:12:52;;;;;;;5.87;1.93;;;17.80;81.40;;;;;;10318871;28;20652;-66
2022/06/22 02:17:54;;;;;;;1.90;1.50;;;17.70;81.70;;;;;;10329724;28;20703;-67
2022/06/22 02:23:03;;;;;;;5.23;1.73;;;17.80;82.00;;;;;;10332221;28;20339;-66
2022/06/22 02:28:04;;;;;;;3.23;1.70;;;17.70;82.20;;;;;;10323029;28;20225;-66
2022/06/22 02:33:07;;;;;;;3.90;1.60;;;17.70;82.40;;;;;;10321295;28;20229;-67
2022/06/22 02:38:11;;;;;;;2.53;1.50;;;17.70;82.50;;;;;;10331185;28;20228;-65
2022/06/22 02:48:33;;;;;;;2.10;1.20;;;17.70;83.60;;;;;;10320332;28;20216;-65
2022/06/22 02:53:39;;;;;;;3.03;1.80;;;17.70;84.00;;;;;;10328937;28;20226;-66
2022/06/22 02:58:40;;;;;;;3.87;1.77;;;17.60;84.80;;;;;;10320551;28;20229;-65
2022/06/22 03:03:49;;;;;;;4.13;1.90;;;17.50;85.60;;;;;;10327252;28;20222;-66
2022/06/22 03:08:51;;;;;;;4.70;1.77;;;17.40;87.50;;;;;;10328524;28;20237;-66
2022/06/22 03:13:57;;;;;;;3.27;1.60;;;17.40;87.90;;;;;;10330077;28;20272;-66
2022/06/22 03:19:02;;;;;;;2.17;1.77;;;17.20;88.50;;;;;;10327213;28;20226;-67
2022/06/22 03:24:34;;;;;;;2.07;1.50;;;17.20;89.30;;;;;;10318790;28;20260;-66
2022/06/22 03:30:00;;;;;;;4.70;1.50;;;17.00;90.20;;;;;;10299903;28;20279;-66
2022/06/22 03:35:13;;;;;;;2.87;1.63;;;17.00;90.60;;;;;;10325223;28;20224;-66
2022/06/22 03:40:35;;;;;;;2.40;1.90;;;17.10;90.80;;;;;;10317197;28;20252;-66
2022/06/22 03:45:44;;;;;;;3.13;1.70;;;17.20;90.60;;;;;;10323303;28;20222;-66
2022/06/22 03:51:14;;;;;;;1.67;1.47;;;17.20;90.40;;;;;;10317336;28;20229;-65
2022/06/22 03:56:19;;;;;;;3.33;1.97;;;17.20;90.40;;;;;;10326064;28;20226;-66
2022/06/22 04:01:21;;;;;;;5.53;2.13;;;17.40;90.60;;;;;;10320410;28;20222;-70
2022/06/22 04:06:26;;;;;;;4.07;1.80;;;17.70;90.10;;;;;;10322526;28;20637;-67
2022/06/22 04:11:40;;;;;;;3.97;1.80;;;17.90;89.50;;;;;;10326085;28;20332;-66
2022/06/22 04:16:48;;;;;;;3.87;1.70;;;17.90;89.50;;;;;;10321967;28;20696;-66
2022/06/22 04:21:53;;;;;;;2.97;2.00;;;17.80;90.00;;;;;;10326159;28;20690;-66
2022/06/22 04:27:12;;;;;;;10.10;1.57;;;17.70;90.30;;;;;;10313048;28;20257;-67
2022/06/22 04:32:26;;;;;;;5.57;2.07;;;17.60;90.70;;;;;;10320974;28;20234;-66
2022/06/22 04:37:45;;;;;;;8.97;2.73;;;17.70;90.70;;;;;;10313375;28;20232;-66
2022/06/22 04:42:46;;;;;;;5.00;2.37;;;17.90;90.50;;;;;;10320212;28;20220;-65
2022/06/22 04:47:47;;;;;;;3.17;2.20;;;18.00;90.30;;;;;;10307956;28;20229;-66
2022/06/22 04:52:50;;;;;;;10.33;2.53;;;18.00;90.40;;;;;;10317856;28;20237;-67
2022/06/22 04:57:55;;;;;;;11.10;4.03;;;18.10;90.50;;;;;;10319717;28;20225;-67
2022/06/22 05:03:00;;;;;;;4.43;2.40;;;18.30;89.30;;;;;;10319236;28;20231;-67
2022/06/22 05:08:16;;;;;;;9.57;2.00;;;18.50;88.70;;;;;;10325359;28;20225;-67
2022/06/22 05:13:32;;;;;;;5.37;1.90;;;18.70;88.60;;;;;;10315307;28;20345;-67
2022/06/22 05:18:36;;;;;;;4.77;2.27;;;18.70;88.50;;;;;;10326295;28;20255;-67
2022/06/22 05:23:38;;;;;;;10.07;3.17;;;18.90;87.90;;;;;;10319986;28;20229;-67
2022/06/22 05:28:55;;;;;;;7.43;3.10;;;19.00;86.90;;;;;;10312265;28;20285;-68
2022/06/22 05:34:01;;;;;;;4.97;2.03;;;19.70;85.00;;;;;;10315752;28;20626;-70
2022/06/22 05:39:02;;;;;;;6.97;2.30;;;19.90;83.70;;;;;;10327103;28;20284;-68
2022/06/22 05:44:11;;;;;;;3.87;1.70;;;20.30;82.10;;;;;;10327969;28;20225;-69
2022/06/22 05:49:17;;;;;;;6.97;1.60;;;20.60;81.70;;;;;;10316581;28;20218;-68
2022/06/22 05:54:28;;;;;;;8.23;2.70;;;21.40;77.70;;;;;;10332290;28;20261;-67
2022/06/22 05:59:51;;;;;;;6.47;2.27;;;21.80;75.00;;;;;;10320144;28;20649;-68
2022/06/22 06:05:10;;;;;;;8.87;2.40;;;21.70;75.30;;;;;;10323376;28;20333;-69
2022/06/22 06:10:34;;;;;;;4.00;1.73;;;21.60;75.90;;;;;;10323561;28;20226;-66
2022/06/22 06:15:38;;;;;;;5.77;1.70;;;21.80;75.60;;;;;;10315649;28;20215;-70
2022/06/22 06:20:42;;;;;;;4.50;1.87;;;22.20;72.80;;;;;;10319322;28;20344;-71
2022/06/22 06:31:20;;;;;;;7.70;1.80;;;23.80;67.50;;;;;;10317305;28;20242;-68
2022/06/22 06:36:28;;;;;;;10.47;1.90;;;25.40;61.40;;;;;;10306793;28;20680;-70
2022/06/22 06:41:44;;;;;;;14.40;2.80;;;26.30;58.60;;;;;;10325136;28;20755;-67
2022/06/22 06:46:57;;;;;;;8.03;1.80;;;27.70;55.70;;;;;;10314592;28;20234;-68
2022/06/22 06:52:01;;;;;;;4.70;1.70;;;29.20;51.90;;;;;;10328782;28;20244;-68
2022/06/22 06:57:08;;;;;;;4.40;1.90;;;30.50;48.00;;;;;;10306397;28;20276;-69
2022/06/22 07:02:22;;;;;;;3.67;2.20;;;30.20;47.70;;;;;;10311958;28;20234;-69
2022/06/22 07:07:43;;;;;;;7.97;2.13;;;31.20;46.50;;;;;;10308979;28;20219;-70
2022/06/22 07:12:57;;;;;;;6.80;2.30;;;31.60;44.40;;;;;;10293953;28;20717;-68
2022/06/22 07:18:02;;;;;;;4.90;1.87;;;31.60;44.50;;;;;;10326196;28;20228;-67
2022/06/22 07:23:47;;;;;;;4.13;1.80;;;32.20;43.90;;;;;;10315193;28;20230;-68
2022/06/22 07:29:16;;;;;;;4.43;1.80;;;33.50;41.50;;;;;;10308361;28;20222;-68
2022/06/22 07:34:23;;;;;;;3.87;1.73;;;34.30;39.80;;;;;;10284219;28;20226;-67
2022/06/22 07:39:34;;;;;;;9.80;2.60;;;34.40;39.50;;;;;;10315344;28;20232;-68
2022/06/22 07:44:35;;;;;;;10.50;4.00;;;34.70;39.00;;;;;;10316512;28;20284;-68
2022/06/22 07:49:41;;;;;;;5.43;2.23;;;33.70;38.50;;;;;;10325579;28;20893;-72
2022/06/22 07:54:53;;;;;;;9.67;1.90;;;32.40;41.10;;;;;;10309066;28;20230;-68
2022/06/22 07:59:57;;;;;;;4.50;1.63;;;32.20;40.50;;;;;;10311914;28;20217;-67
2022/06/22 08:05:01;;;;;;;3.13;1.80;;;32.90;38.50;;;;;;10307451;28;20225;-69
2022/06/22 08:10:12;;;;;;;4.43;2.00;;;33.30;39.10;;;;;;10314386;28;20214;-68
2022/06/22 08:15:17;;;;;;;4.53;1.70;;;32.50;40.10;;;;;;10310102;28;20297;-67
2022/06/22 08:20:22;;;;;;;5.30;2.20;;;33.80;38.70;;;;;;10313290;28;20661;-68
2022/06/22 08:25:24;;;;;;;5.20;1.90;;;33.80;39.10;;;;;;10311891;28;20175;-67
2022/06/22 08:30:25;;;;;;;4.73;1.67;;;33.80;37.80;;;;;;10309445;28;20245;-67
2022/06/22 08:35:36;;;;;;;5.40;1.70;;;35.00;37.10;;;;;;10311189;28;20743;-67
2022/06/22 08:40:37;;;;;;;5.50;2.27;;;35.60;35.40;;;;;;10287949;28;20237;-69
2022/06/22 08:45:44;;;;;;;6.20;1.50;;;36.60;33.60;;;;;;10313263;28;20229;-68
2022/06/22 08:51:29;;;;;;;4.90;2.10;;;35.70;35.30;;;;;;10312983;28;20290;-67
2022/06/22 08:56:46;;;;;;;4.30;1.63;;;37.70;33.00;;;;;;10297152;28;20227;-68
2022/06/22 09:02:08;;;;;;;5.07;1.50;;;35.90;33.20;;;;;;10288574;28;20288;-68
2022/06/22 09:07:31;;;;;;;5.07;1.90;;;35.70;34.00;;;;;;10297259;28;20245;-68
2022/06/22 09:12:48;;;;;;;3.30;1.63;;;34.20;35.20;;;;;;10318762;28;20225;-68
2022/06/22 09:18:30;;;;;;;5.53;2.10;;;32.60;37.30;;;;;;10303142;28;20226;-68
2022/06/22 09:23:41;;;;;;;7.73;1.80;;;31.50;38.80;;;;;;10312267;28;20233;-67
2022/06/22 09:29:08;;;;;;;5.13;2.23;;;31.20;37.30;;;;;;10305223;28;20700;-69
2022/06/22 09:34:29;;;;;;;6.93;2.23;;;31.30;39.20;;;;;;10302552;28;20218;-68
2022/06/22 09:39:51;;;;;;;7.20;2.20;;;31.90;39.10;;;;;;10307887;28;20218;-68
2022/06/22 09:45:34;;;;;;;6.03;2.30;;;32.30;37.10;;;;;;10307094;28;20273;-69
2022/06/22 09:51:04;;;;;;;4.87;1.83;;;32.40;36.10;;;;;;10306606;28;20585;-68
2022/06/22 09:56:22;;;;;;;3.67;1.60;;;33.20;36.10;;;;;;10311010;28;20701;-68
2022/06/22 10:02:02;;;;;;;6.13;1.60;;;34.20;33.60;;;;;;10312414;28;20324;-69
2022/06/22 10:07:23;;;;;;;4.47;1.60;;;34.30;33.70;;;;;;10304910;28;20242;-67
2022/06/22 10:12:49;;;;;;;7.03;1.77;;;35.30;33.80;;;;;;10308394;28;20223;-68
2022/06/22 10:18:27;;;;;;;4.60;1.97;;;35.00;31.60;;;;;;10311391;28;20218;-68
2022/06/22 10:24:06;;;;;;;4.30;1.73;;;34.90;30.90;;;;;;10316069;28;20230;-68
2022/06/22 10:29:24;;;;;;;5.37;1.70;;;34.50;33.80;;;;;;10319034;28;20221;-70
2022/06/22 10:34:51;;;;;;;3.70;1.53;;;35.10;31.60;;;;;;10314861;28;20228;-67
2022/06/22 10:45:08;;;;;;;4.40;1.60;;;35.40;31.40;;;;;;10310980;28;20600;-67
2022/06/22 10:45:54;;;;;;;6.17;1.60;;;35.00;31.80;;;;;;10316257;28;20223;-67
2022/06/22 10:51:13;;;;;;;4.73;2.10;;;34.30;32.90;;;;;;10301714;28;20598;-67
2022/06/22 10:56:51;;;;;;;3.47;1.70;;;33.30;33.20;;;;;;10311367;28;20235;-68
2022/06/22 11:02:29;;;;;;;4.53;1.90;;;33.00;33.90;;;;;;10308924;28;20592;-67
2022/06/22 11:08:04;;;;;;;5.27;2.03;;;31.90;34.30;;;;;;10317786;28;20221;-68
2022/06/22 11:13:45;;;;;;;4.00;1.73;;;31.60;35.80;;;;;;10322154;28;20313;-67
2022/06/22 11:19:22;;;;;;;3.80;1.60;;;31.70;35.50;;;;;;10316678;28;20214;-67
2022/06/22 11:24:52;;;;;;;2.67;1.50;;;31.70;35.50;;;;;;10322272;28;20276;-67
2022/06/22 11:36:07;;;;;;;3.10;1.90;;;31.60;36.50;;;;;;10247138;28;20233;-67
2022/06/22 11:41:23;;;;;;;6.77;1.97;;;31.60;36.50;;;;;;10315143;28;20789;-68
2022/06/22 11:46:32;;;;;;;4.93;1.70;;;32.00;36.20;;;;;;10329612;28;20345;-67
2022/06/22 11:51:52;;;;;;;7.60;2.30;;;32.00;35.90;;;;;;10315136;28;20223;-68
2022/06/22 11:56:55;;;;;;;2.67;1.80;;;31.70;36.50;;;;;;10326493;28;20240;-68
2022/06/22 12:02:20;;;;;;;3.93;1.70;;;31.30;36.90;;;;;;10319155;28;20320;-67
2022/06/22 12:07:48;;;;;;;3.20;1.93;;;31.60;37.20;;;;;;10326396;28;20662;-68
2022/06/22 12:12:50;;;;;;;146.50;10.20;;;31.10;38.20;;;;;;10322204;28;20252;-68
2022/06/22 12:18:18;;;;;;;4.33;1.60;;;31.50;38.70;;;;;;10324212;28;20229;-67
2022/06/22 12:23:24;;;;;;;7.73;2.07;;;32.00;37.60;;;;;;10317443;28;20219;-68
2022/06/22 12:28:50;;;;;;;4.43;2.03;;;32.10;38.10;;;;;;10324918;28;20223;-67
2022/06/22 12:34:03;;;;;;;4.40;1.73;;;32.20;37.70;;;;;;10328210;28;20233;-67
2022/06/22 12:39:35;;;;;;;4.20;1.90;;;31.90;37.50;;;;;;10306941;28;20294;-68
2022/06/22 12:44:46;;;;;;;2.07;1.80;;;31.20;38.90;;;;;;10317472;28;20226;-67
2022/06/22 12:50:18;;;;;;;4.97;2.00;;;31.30;38.80;;;;;;10323883;28;20241;-68
2022/06/22 12:55:27;;;;;;;6.77;1.90;;;31.50;39.80;;;;;;10308262;28;20289;-68
2022/06/22 13:00:28;;;;;;;3.90;1.97;;;31.50;40.30;;;;;;10304563;28;20226;-68
2022/06/22 13:05:34;;;;;;;6.17;2.00;;;31.40;41.00;;;;;;10326057;28;20213;-67
2022/06/22 13:10:40;;;;;;;8.60;2.50;;;31.40;42.10;;;;;;10321332;28;20237;-68
2022/06/22 13:15:52;;;;;;;9.83;2.60;;;31.40;42.90;;;;;;10310836;28;20225;-68
2022/06/22 13:21:12;;;;;;;5.47;2.83;;;31.60;42.90;;;;;;10315964;28;20341;-68
2022/06/22 13:26:36;;;;;;;8.97;2.80;;;31.40;43.20;;;;;;10316789;28;20225;-68
2022/06/22 13:31:40;;;;;;;9.83;3.10;;;31.40;43.80;;;;;;10303741;28;20230;-67
2022/06/22 13:36:56;;;;;;;10.07;2.90;;;31.40;43.40;;;;;;10316159;28;20234;-67
2022/06/22 13:42:04;;;;;;;6.37;2.53;;;31.10;43.70;;;;;;10314234;28;20226;-67
2022/06/22 13:47:37;;;;;;;8.10;3.30;;;30.80;44.30;;;;;;10324413;28;20336;-69
2022/06/22 13:52:56;;;;;;;9.50;2.80;;;30.30;44.70;;;;;;10264790;28;20237;-68
2022/06/22 13:58:23;;;;;;;5.60;2.73;;;29.90;45.60;;;;;;10330855;28;20284;-68
2022/06/22 14:03:50;;;;;;;6.87;3.50;;;29.60;46.90;;;;;;10336673;28;20636;-67
2022/06/22 14:08:56;;;;;;;13.60;3.53;;;29.50;47.50;;;;;;10333993;28;20229;-68
2022/06/22 14:14:02;;;;;;;7.77;2.67;;;29.60;48.60;;;;;;10337373;28;20223;-68
2022/06/22 14:19:16;;;;;;;6.07;2.80;;;29.60;48.90;;;;;;10338236;28;20492;-67
2022/06/22 14:24:26;;;;;;;9.50;3.60;;;29.50;49.10;;;;;;10321792;28;20250;-68
2022/06/22 14:29:58;;;;;;;10.27;3.10;;;29.30;50.40;;;;;;10323315;28;20222;-67
2022/06/22 14:35:08;;;;;;;6.80;3.30;;;29.10;51.80;;;;;;10323930;28;20237;-68
2022/06/22 14:40:29;;;;;;;10.57;3.60;;;29.00;52.90;;;;;;10318841;28;20633;-68
2022/06/22 14:45:47;;;;;;;5.80;4.10;;;28.80;55.50;;;;;;10324999;28;20221;-69
2022/06/22 14:50:51;;;;;;;12.13;4.00;;;28.70;55.70;;;;;;10319189;28;20217;-68
2022/06/22 14:55:59;;;;;;;12.13;3.97;;;28.40;55.40;;;;;;10323809;28;20240;-68
2022/06/22 15:01:17;;;;;;;10.47;3.87;;;28.40;55.50;;;;;;10323705;28;20595;-67
2022/06/22 15:06:55;;;;;;;17.83;3.80;;;28.40;55.10;;;;;;10318431;28;20226;-68
2022/06/22 15:18:00;;;;;;;9.03;3.70;;;28.50;54.70;;;;;;10323161;28;20218;-69
2022/06/22 15:23:32;;;;;;;8.73;3.57;;;28.30;55.10;;;;;;10325967;28;20223;-68
2022/06/22 15:29:10;;;;;;;7.23;3.27;;;28.20;55.40;;;;;;10314099;28;20703;-69
2022/06/22 15:34:32;;;;;;;10.73;3.67;;;27.90;55.00;;;;;;10303496;28;20977;-68
2022/06/22 15:39:50;;;;;;;7.43;3.67;;;27.80;55.70;;;;;;10329711;28;20221;-68
2022/06/22 15:45:22;;;;;;;9.53;3.87;;;27.70;56.40;;;;;;10306320;28;20260;-68
2022/06/22 15:50:37;;;;;;;8.53;3.83;;;27.60;57.50;;;;;;10324885;28;20206;-68
2022/06/22 15:55:44;;;;;;;12.60;4.20;;;27.60;58.30;;;;;;10321184;28;20228;-68
2022/06/22 16:00:55;;;;;;;11.73;4.67;;;27.60;59.70;;;;;;10318299;28;20226;-68
2022/06/22 16:06:13;;;;;;;8.63;4.07;;;27.50;61.30;;;;;;10327851;28;20222;-70
2022/06/22 16:17:05;;;;;;;11.50;4.80;;;27.40;65.20;;;;;;10311217;28;20221;-69
2022/06/22 16:22:16;;;;;;;11.87;4.13;;;27.10;67.40;;;;;;10301570;28;20256;-69
2022/06/22 16:27:23;;;;;;;17.27;4.60;;;26.70;69.30;;;;;;10309393;28;20225;-70
2022/06/22 16:32:33;;;;;;;20.80;5.03;;;26.40;70.80;;;;;;10311902;28;20274;-70
2022/06/22 16:37:52;;;;;;;13.73;4.30;;;26.10;72.10;;;;;;10321052;28;20228;-70
2022/06/22 16:43:08;;;;;;;17.07;4.53;;;25.90;73.30;;;;;;10306370;28;20221;-69
2022/06/22 16:48:24;;;;;;;14.33;4.43;;;25.70;74.10;;;;;;10315108;28;20242;-69
2022/06/22 16:53:51;;;;;;;15.80;4.40;;;25.60;75.00;;;;;;10317688;28;20241;-68
2022/06/22 16:59:08;;;;;;;15.67;4.70;;;25.50;76.00;;;;;;10317372;28;20231;-69
2022/06/22 17:04:17;;;;;;;17.13;4.50;;;25.40;77.10;;;;;;10323848;28;20233;-69
2022/06/22 17:09:36;;;;;;;15.77;4.77;;;25.30;78.10;;;;;;10320285;28;20221;-70
2022/06/22 17:14:42;;;;;;;19.87;5.27;;;25.30;79.20;;;;;;10319028;28;20337;-69
2022/06/22 17:19:46;;;;;;;16.27;5.03;;;25.10;80.60;;;;;;10312734;28;20213;-69
2022/06/22 17:25:08;;;;;;;11.80;5.13;;;25.00;81.80;;;;;;10305441;28;20245;-68
2022/06/22 17:30:33;;;;;;;14.70;4.83;;;25.00;82.80;;;;;;10316396;28;20217;-69
2022/06/22 17:35:45;;;;;;;15.47;4.77;;;25.10;83.80;;;;;;10310802;28;20222;-69
2022/06/22 17:41:25;;;;;;;14.27;4.60;;;25.10;84.20;;;;;;10288454;28;20240;-69
2022/06/22 17:46:26;;;;;;;12.17;4.93;;;25.00;85.20;;;;;;10318635;28;20225;-69
2022/06/22 17:51:55;;;;;;;17.70;4.33;;;24.90;86.20;;;;;;10313904;28;20304;-70
2022/06/22 17:57:01;;;;;;;13.70;5.03;;;24.70;87.40;;;;;;10317642;28;20247;-70
2022/06/22 18:02:15;;;;;;;12.73;4.50;;;24.50;89.30;;;;;;10316089;28;20313;-70
2022/06/22 18:07:24;;;;;;;15.87;4.83;;;24.50;90.80;;;;;;10310204;28;20226;-69
2022/06/22 18:12:32;;;;;;;16.33;4.50;;;24.40;91.50;;;;;;10315681;28;20221;-69
2022/06/22 18:17:33;;;;;;;13.83;4.47;;;24.40;92.20;;;;;;10310315;28;20301;-69
2022/06/22 18:22:44;;;;;;;17.70;5.10;;;24.30;92.80;;;;;;10310486;28;20227;-70
2022/06/22 18:27:57;;;;;;;16.00;4.23;;;24.20;93.50;;;;;;10310001;28;20272;-69
2022/06/22 18:33:11;;;;;;;13.43;4.50;;;24.00;94.40;;;;;;10304390;28;20249;-70
2022/06/22 18:44:00;;;;;;;13.70;4.40;;;24.00;96.30;;;;;;10320086;28;20312;-70
2022/06/22 18:49:15;;;;;;;16.80;5.10;;;24.00;97.10;;;;;;10326254;28;20763;-69
2022/06/22 18:54:30;;;;;;;19.87;5.07;;;23.90;98.20;;;;;;10319365;28;20792;-70
2022/06/22 18:59:42;;;;;;;13.40;4.90;;;24.00;99.00;;;;;;10319302;28;20225;-70
2022/06/22 19:04:50;;;;;;;15.70;4.70;;;24.00;99.60;;;;;;10313929;28;20232;-69
2022/06/22 19:10:05;;;;;;;13.20;4.57;;;24.00;99.90;;;;;;10330418;28;20216;-69
2022/06/22 19:15:22;;;;;;;12.07;4.10;;;23.90;99.90;;;;;;10310989;28;20238;-71
2022/06/22 19:20:30;;;;;;;11.83;4.13;;;23.70;99.90;;;;;;10329051;28;20660;-69
2022/06/22 19:25:48;;;;;;;12.70;4.63;;;23.50;99.90;;;;;;10317841;28;20574;-68
2022/06/22 19:31:16;;;;;;;13.10;4.83;;;23.30;99.90;;;;;;10316545;28;20221;-69
2022/06/22 19:36:42;;;;;;;13.67;4.13;;;23.20;99.90;;;;;;10310204;28;20724;-69
2022/06/22 19:42:05;;;;;;;11.40;4.30;;;22.90;99.90;;;;;;10315278;28;20230;-69
2022/06/22 19:47:18;;;;;;;14.90;4.97;;;22.80;99.90;;;;;;10314894;28;20313;-70
2022/06/22 19:52:31;;;;;;;15.80;5.10;;;22.60;99.90;;;;;;10319693;28;20237;-68
2022/06/22 19:57:32;;;;;;;11.23;4.47;;;22.50;99.90;;;;;;10309181;28;20230;-69
2022/06/22 20:02:44;;;;;;;13.07;4.60;;;22.30;99.90;;;;;;10331516;28;20229;-70
2022/06/22 20:07:50;;;;;;;14.33;4.57;;;22.20;99.90;;;;;;10312698;28;20228;-68
2022/06/22 20:12:59;;;;;;;12.90;4.83;;;22.10;99.90;;;;;;10321753;28;20296;-70
2022/06/22 20:18:00;;;;;;;15.47;5.17;;;21.90;99.90;;;;;;10314559;28;20648;-69
2022/06/22 20:23:38;;;;;;;10.80;4.70;;;21.80;99.90;;;;;;10311243;28;20800;-69
2022/06/22 20:28:54;;;;;;;13.27;5.67;;;21.80;99.90;;;;;;10312936;28;20225;-69
2022/06/22 20:34:09;;;;;;;16.80;4.73;;;21.70;99.90;;;;;;10318100;28;20296;-68
2022/06/22 20:39:11;;;;;;;21.53;5.10;;;21.60;99.90;;;;;;10309312;28;20653;-70
2022/06/22 20:44:30;;;;;;;13.73;4.63;;;21.60;99.90;;;;;;10314871;28;20226;-69
2022/06/22 20:49:40;;;;;;;15.60;5.50;;;21.50;99.90;;;;;;10319735;28;20673;-70
2022/06/22 20:55:01;;;;;;;12.03;4.70;;;21.40;99.90;;;;;;10304826;28;20237;-69
2022/06/22 21:00:12;;;;;;;17.07;5.60;;;21.30;99.90;;;;;;10314459;28;20712;-70
2022/06/22 21:05:48;;;;;;;11.40;4.83;;;21.30;99.90;;;;;;10318414;28;20362;-69
2022/06/22 21:10:52;;;;;;;14.20;5.50;;;21.30;99.90;;;;;;10313460;28;20222;-70
2022/06/22 21:15:56;;;;;;;13.63;5.43;;;21.30;99.90;;;;;;10311701;28;20326;-69
2022/06/22 21:20:58;;;;;;;13.20;5.40;;;21.20;99.90;;;;;;10311363;28;20289;-69
2022/06/22 21:26:01;;;;;;;14.60;6.00;;;21.20;99.90;;;;;;10306678;28;20232;-68
2022/06/22 21:31:11;;;;;;;12.77;5.60;;;21.20;99.90;;;;;;10317573;28;20218;-70
2022/06/22 21:36:12;;;;;;;13.57;6.20;;;21.10;99.90;;;;;;10312179;28;20261;-68
2022/06/22 21:41:53;;;;;;;14.83;5.93;;;21.00;99.90;;;;;;10308507;28;20242;-69
2022/06/22 21:47:32;;;;;;;12.83;5.93;;;20.90;99.90;;;;;;10308506;28;20217;-67
2022/06/22 21:53:09;;;;;;;11.50;6.27;;;20.90;99.90;;;;;;10313890;28;20237;-68
2022/06/22 21:58:37;;;;;;;10.83;6.13;;;20.90;99.90;;;;;;10312160;28;20234;-67
2022/06/22 22:03:53;;;;;;;10.50;5.57;;;20.90;99.90;;;;;;10311265;28;20261;-68
2022/06/22 22:08:58;;;;;;;11.70;6.40;;;20.90;99.90;;;;;;10305858;28;20213;-67
2022/06/22 22:14:07;;;;;;;11.70;6.10;;;20.80;99.90;;;;;;10323194;28;20221;-68
2022/06/22 22:19:14;;;;;;;11.47;6.37;;;20.80;99.90;;;;;;10307802;28;20257;-68
2022/06/22 22:24:28;;;;;;;11.60;7.20;;;20.80;99.90;;;;;;10315588;28;20325;-69
2022/06/22 22:29:45;;;;;;;17.10;10.87;;;20.90;99.90;;;;;;10315580;28;20218;-68
2022/06/22 22:34:47;;;;;;;11.77;8.43;;;20.90;99.90;;;;;;10315902;28;20221;-68
2022/06/22 22:39:51;;;;;;;14.87;8.60;;;20.90;99.90;;;;;;10323553;28;20718;-68
2022/06/22 22:44:56;;;;;;;10.50;7.47;;;21.00;99.90;;;;;;10330435;28;20233;-68
2022/06/22 22:50:13;;;;;;;10.70;7.50;;;21.00;99.90;;;;;;10320489;28;20221;-69
2022/06/22 22:55:24;;;;;;;12.27;6.63;;;21.00;99.90;;;;;;10323491;28;20238;-68
2022/06/22 23:00:36;;;;;;;13.47;7.07;;;21.00;99.90;;;;;;10307273;28;20245;-67
2022/06/22 23:05:37;;;;;;;11.57;7.10;;;21.00;99.90;;;;;;10316507;28;20592;-68
2022/06/22 23:10:43;;;;;;;11.03;7.57;;;20.90;99.90;;;;;;10330752;28;20219;-67
2022/06/22 23:15:47;;;;;;;8.77;6.53;;;20.90;99.90;;;;;;10331366;28;20249;-67
2022/06/22 23:20:51;;;;;;;12.77;7.27;;;21.00;99.90;;;;;;10320305;28;20246;-68
2022/06/22 23:25:59;;;;;;;11.77;7.63;;;21.00;99.90;;;;;;10312846;28;20359;-68
2022/06/22 23:31:04;;;;;;;13.77;7.97;;;21.00;99.90;;;;;;10315554;28;20280;-67
2022/06/22 23:36:37;;;;;;;14.63;8.10;;;21.00;99.90;;;;;;10315729;28;20214;-67
2022/06/22 23:41:38;;;;;;;13.97;7.53;;;21.00;99.90;;;;;;10313961;28;20235;-68
2022/06/22 23:46:43;;;;;;;15.30;6.83;;;21.00;99.90;;;;;;10314736;28;20219;-67
2022/06/22 23:51:48;;;;;;;10.83;7.90;;;21.00;99.90;;;;;;10329501;28;20221;-68
2022/06/22 23:56:55;;;;;;;10.17;6.67;;;21.00;99.90;;;;;;10313186;28;20227;-68
